createdAt,value
2022-09-13T00:01:19.173Z,15.30
2022-09-13T00:03:55.367Z,16.50
2022-09-13T00:06:31.436Z,13.90
2022-09-13T00:09:04.771Z,17.30
2022-09-13T00:11:40.556Z,16.90
2022-09-13T00:14:13.913Z,16.30
2022-09-13T00:16:56.012Z,15.70
2022-09-13T00:19:32.038Z,16.40
2022-09-13T00:22:25.491Z,14.40
2022-09-13T00:24:58.829Z,15.20
2022-09-13T00:27:41.109Z,15.90
2022-09-13T00:30:17.836Z,16.90
2022-09-13T00:32:51.067Z,15.70
2022-09-13T00:35:25.226Z,15.80
2022-09-13T00:38:08.710Z,17.50
2022-09-13T00:40:50.975Z,15.50
2022-09-13T00:43:38.324Z,16.80
2022-09-13T00:46:19.432Z,16.90
2022-09-13T00:49:11.014Z,14.50
2022-09-13T00:51:51.088Z,15.10
2022-09-13T00:54:31.643Z,12.80
2022-09-13T00:57:09.353Z,14.00
2022-09-13T01:00:11.828Z,14.50
2022-09-13T01:02:51.211Z,14.90
2022-09-13T01:05:48.929Z,20.10
2022-09-13T01:08:23.789Z,13.10
2022-09-13T01:11:28.214Z,17.40
2022-09-13T01:14:02.325Z,13.00
2022-09-13T01:16:56.386Z,12.90
2022-09-13T01:19:33.169Z,15.60
2022-09-13T01:22:34.801Z,14.90
2022-09-13T01:25:55.527Z,15.20
2022-09-13T01:28:54.305Z,15.60
2022-09-13T01:31:36.418Z,19.20
2022-09-13T01:34:22.793Z,16.70
2022-09-13T01:37:12.229Z,17.50
2022-09-13T01:40:00.986Z,16.30
2022-09-13T01:42:48.745Z,18.10
2022-09-13T01:45:34.170Z,16.70
2022-09-13T01:48:18.192Z,18.10
2022-09-13T01:51:02.556Z,17.80
2022-09-13T01:53:52.148Z,15.70
2022-09-13T01:56:35.480Z,16.70
2022-09-13T01:59:16.001Z,16.70
2022-09-13T02:01:58.915Z,16.80
2022-09-13T02:04:39.188Z,16.80
2022-09-13T02:07:15.669Z,18.90
2022-09-13T02:09:57.110Z,17.00
2022-09-13T02:12:36.638Z,15.10
2022-09-13T02:15:25.558Z,17.40
2022-09-13T02:18:07.628Z,15.60
2022-09-13T02:20:44.917Z,17.10
2022-09-13T02:23:24.858Z,16.70
2022-09-13T02:25:59.060Z,16.90
2022-09-13T02:28:38.559Z,17.70
2022-09-13T02:31:39.755Z,19.00
2022-09-13T02:34:20.513Z,22.70
2022-09-13T02:36:57.071Z,25.30
2022-09-13T02:39:33.415Z,25.20
2022-09-13T02:42:16.089Z,22.10
2022-09-13T02:44:51.239Z,20.50
2022-09-13T02:47:45.256Z,23.90
2022-09-13T02:50:38.132Z,22.30
2022-09-13T02:53:23.959Z,21.80
2022-09-13T02:56:08.119Z,21.10
2022-09-13T02:58:50.723Z,23.70
2022-09-13T03:01:27.228Z,20.40
2022-09-13T03:04:03.844Z,19.80
2022-09-13T03:06:48.281Z,22.00
2022-09-13T03:09:22.405Z,21.00
2022-09-13T03:12:20.720Z,19.50
2022-09-13T03:15:04.092Z,21.40
2022-09-13T03:17:48.916Z,22.30
2022-09-13T03:20:32.100Z,21.50
2022-09-13T03:23:37.533Z,19.30
2022-09-13T03:26:28.032Z,20.80
2022-09-13T03:29:15.374Z,20.30
2022-09-13T03:31:56.023Z,17.10
2022-09-13T03:34:54.979Z,19.60
2022-09-13T03:37:35.092Z,17.60
2022-09-13T03:40:15.352Z,18.60
2022-09-13T03:42:54.414Z,18.60
2022-09-13T03:45:41.522Z,19.10
2022-09-13T03:48:18.994Z,16.00
2022-09-13T03:50:52.843Z,16.90
2022-09-13T03:53:28.753Z,14.30
2022-09-13T03:58:36.817Z,17.00
2022-09-13T04:01:15.377Z,15.30
2022-09-13T04:03:56.356Z,14.50
2022-09-13T04:06:33.225Z,15.20
2022-09-13T04:09:09.175Z,15.20
2022-09-13T04:11:42.334Z,14.60
2022-09-13T04:14:18.623Z,14.20
2022-09-13T04:16:51.756Z,16.40
2022-09-13T04:19:34.094Z,16.10
2022-09-13T04:22:07.899Z,14.30
2022-09-13T04:24:44.396Z,15.70
2022-09-13T04:27:20.799Z,18.20
2022-09-13T04:29:54.044Z,15.70
2022-09-13T04:32:27.398Z,16.60
2022-09-13T04:35:00.803Z,15.30
2022-09-13T04:37:36.974Z,16.80
2022-09-13T04:40:15.006Z,15.60
2022-09-13T04:42:48.892Z,16.40
2022-09-13T04:45:25.794Z,16.30
2022-09-13T04:48:00.201Z,15.50
2022-09-13T04:50:40.852Z,18.80
2022-09-13T04:53:15.372Z,16.30
2022-09-13T04:55:48.787Z,17.60
2022-09-13T04:58:42.323Z,20.40
2022-09-13T05:01:18.437Z,16.80
2022-09-13T05:03:55.703Z,19.20
2022-09-13T05:06:32.389Z,17.40
2022-09-13T05:09:06.733Z,15.20
2022-09-13T05:11:40.095Z,16.70
2022-09-13T05:14:15.098Z,16.90
2022-09-13T05:16:48.399Z,14.90
2022-09-13T05:19:21.925Z,15.60
2022-09-13T05:21:55.172Z,15.40
2022-09-13T05:24:38.552Z,15.00
2022-09-13T05:27:11.658Z,15.10
2022-09-13T05:29:48.409Z,15.90
2022-09-13T05:32:42.240Z,16.10
2022-09-13T05:35:27.198Z,17.10
2022-09-13T05:38:03.119Z,18.70
2022-09-13T05:40:50.049Z,15.70
2022-09-13T05:43:23.310Z,18.80
2022-09-13T05:46:04.294Z,17.00
2022-09-13T05:48:48.888Z,16.40
2022-09-13T05:51:35.218Z,15.90
2022-09-13T05:54:14.284Z,21.40
2022-09-13T05:56:47.862Z,21.60
2022-09-13T05:59:21.153Z,20.60
2022-09-13T06:01:57.107Z,18.60
2022-09-13T06:04:31.754Z,16.70
2022-09-13T06:07:05.241Z,16.30
2022-09-13T06:09:43.114Z,17.40
2022-09-13T06:12:27.593Z,15.90
2022-09-13T06:15:01.267Z,18.20
2022-09-13T06:17:34.615Z,21.90
2022-09-13T06:20:28.469Z,19.50
2022-09-13T06:23:01.539Z,17.60
2022-09-13T06:25:39.394Z,23.80
2022-09-13T06:28:14.928Z,17.60
2022-09-13T06:31:03.222Z,18.90
2022-09-13T06:33:41.612Z,18.80
2022-09-13T06:36:20.243Z,19.90
2022-09-13T06:38:53.604Z,20.40
2022-09-13T06:41:29.588Z,20.30
2022-09-13T06:44:23.823Z,16.80
2022-09-13T06:47:11.956Z,17.00
2022-09-13T06:49:47.286Z,16.80
2022-09-13T06:52:23.337Z,16.30
2022-09-13T06:54:56.529Z,14.80
2022-09-13T06:57:31.829Z,15.60
2022-09-13T07:00:25.374Z,17.50
2022-09-13T07:02:58.545Z,16.20
2022-09-13T07:05:31.670Z,16.10
2022-09-13T07:08:05.237Z,13.40
2022-09-13T07:11:02.128Z,13.60
2022-09-13T07:13:49.030Z,15.70
2022-09-13T07:16:23.854Z,13.60
2022-09-13T07:19:19.259Z,14.50
2022-09-13T07:22:04.499Z,13.40
2022-09-13T07:24:40.072Z,13.40
2022-09-13T07:27:15.188Z,11.60
2022-09-13T07:29:58.675Z,13.10
2022-09-13T07:32:37.214Z,10.90
2022-09-13T07:35:13.139Z,9.20
2022-09-13T07:37:57.495Z,11.20
2022-09-13T07:40:42.748Z,11.60
2022-09-13T07:43:15.951Z,11.80
2022-09-13T07:46:11.004Z,11.80
2022-09-13T07:49:04.937Z,12.20
2022-09-13T07:51:51.713Z,11.50
2022-09-13T07:54:37.058Z,11.70
2022-09-13T07:57:10.214Z,10.80
2022-09-13T07:59:53.329Z,8.90
2022-09-13T08:02:47.035Z,12.60
2022-09-13T08:05:43.771Z,9.10
2022-09-13T08:08:38.538Z,8.10
2022-09-13T08:11:19.690Z,6.80
2022-09-13T08:13:54.109Z,7.10
2022-09-13T08:16:28.516Z,6.60
2022-09-13T08:19:05.888Z,5.90
2022-09-13T08:21:41.714Z,6.20
2022-09-13T08:24:19.915Z,5.40
2022-09-13T08:27:13.853Z,6.00
2022-09-13T08:30:08.751Z,6.80
2022-09-13T08:33:02.944Z,4.80
2022-09-13T08:35:39.525Z,5.60
2022-09-13T08:38:12.872Z,6.50
2022-09-13T08:41:26.093Z,3.70
2022-09-13T08:44:08.199Z,2.90
2022-09-13T08:46:46.632Z,5.30
2022-09-13T08:49:34.294Z,5.90
2022-09-13T08:52:26.191Z,5.30
2022-09-13T08:54:59.576Z,7.60
2022-09-13T08:57:38.884Z,6.30
2022-09-13T09:00:32.651Z,4.90
2022-09-13T09:03:18.744Z,4.10
2022-09-13T09:05:53.127Z,5.40
2022-09-13T09:08:34.726Z,5.00
2022-09-13T09:11:12.387Z,5.80
2022-09-13T09:14:14.246Z,5.60
2022-09-13T09:17:14.853Z,6.30
2022-09-13T09:19:55.950Z,6.80
2022-09-13T09:22:36.222Z,5.20
2022-09-13T09:25:14.643Z,5.70
2022-09-13T09:30:19.974Z,4.80
2022-09-13T09:33:12.936Z,5.70
2022-09-13T09:36:04.246Z,5.60
2022-09-13T09:38:41.514Z,5.60
2022-09-13T09:41:26.068Z,4.70
2022-09-13T09:44:08.086Z,4.00
2022-09-13T09:46:44.354Z,5.20
2022-09-13T09:49:52.355Z,5.60
2022-09-13T09:52:31.382Z,6.90
2022-09-13T09:55:14.325Z,3.70
2022-09-13T09:58:02.341Z,4.30
2022-09-13T10:00:56.488Z,4.20
2022-09-13T10:03:57.947Z,5.40
2022-09-13T10:06:31.498Z,4.20
2022-09-13T10:09:21.512Z,4.20
2022-09-13T10:11:57.421Z,3.40
2022-09-13T10:14:42.814Z,3.50
2022-09-13T10:17:23.482Z,5.20
2022-09-13T10:20:05.436Z,5.80
2022-09-13T10:25:23.268Z,6.50
2022-09-13T10:27:58.573Z,4.50
2022-09-13T10:30:38.046Z,5.40
2022-09-13T10:33:27.282Z,4.20
2022-09-13T10:38:37.472Z,3.00
2022-09-13T10:41:22.546Z,4.50
2022-09-13T10:44:05.509Z,4.60
2022-09-13T10:46:44.725Z,5.30
2022-09-13T10:49:42.009Z,4.70
2022-09-13T10:52:31.327Z,4.60
2022-09-13T10:55:32.367Z,3.70
2022-09-13T11:01:18.576Z,10.00
2022-09-13T11:04:16.515Z,7.10
2022-09-13T11:07:00.977Z,5.60
2022-09-13T11:09:39.598Z,4.30
2022-09-13T11:12:21.169Z,4.90
2022-09-13T11:15:29.158Z,3.70
2022-09-13T11:18:50.243Z,6.00
2022-09-13T11:21:38.467Z,3.90
2022-09-13T11:24:35.204Z,5.70
2022-09-13T11:27:31.447Z,5.20
2022-09-13T11:30:18.627Z,4.50
2022-09-13T11:33:21.237Z,5.10
2022-09-13T11:36:26.706Z,5.70
2022-09-13T11:39:09.622Z,4.90
2022-09-13T11:41:50.999Z,7.10
2022-09-13T11:44:44.300Z,5.70
2022-09-13T11:47:31.251Z,5.10
2022-09-13T11:50:24.719Z,6.30
2022-09-13T11:53:14.431Z,5.80
2022-09-13T11:55:51.511Z,6.30
2022-09-13T11:58:34.558Z,5.10
2022-09-13T12:01:10.292Z,5.00
2022-09-13T12:03:54.809Z,6.00
2022-09-13T12:06:44.552Z,7.40
2022-09-13T12:09:22.603Z,6.80
2022-09-13T12:12:03.863Z,6.80
2022-09-13T12:15:02.580Z,6.20
2022-09-13T12:18:02.126Z,10.90
2022-09-13T12:20:42.724Z,4.60
2022-09-13T12:23:40.581Z,6.40
2022-09-13T12:26:20.737Z,9.40
2022-09-13T12:28:59.824Z,4.90
2022-09-13T12:31:34.458Z,6.70
2022-09-13T12:34:11.938Z,6.80
2022-09-13T12:37:06.213Z,7.10
2022-09-13T12:39:59.204Z,7.90
2022-09-13T12:43:11.827Z,7.20
2022-09-13T12:46:19.918Z,10.70
2022-09-13T12:49:20.816Z,6.40
2022-09-13T12:55:02.500Z,7.70
2022-09-13T12:57:47.624Z,8.50
2022-09-13T13:00:27.128Z,7.20
2022-09-13T13:03:18.304Z,7.40
2022-09-13T13:05:56.649Z,6.50
2022-09-13T13:08:32.519Z,5.30
2022-09-13T13:11:18.123Z,9.10
2022-09-13T13:14:09.959Z,7.80
2022-09-13T13:16:53.405Z,9.80
2022-09-13T13:19:37.466Z,6.80
2022-09-13T13:22:42.474Z,6.40
2022-09-13T13:25:39.386Z,7.50
2022-09-13T13:28:56.231Z,8.40
2022-09-13T13:31:43.832Z,8.90
2022-09-13T13:34:41.720Z,8.40
2022-09-13T13:37:40.559Z,9.60
2022-09-13T13:40:29.456Z,9.10
2022-09-13T13:43:34.008Z,7.90
2022-09-13T13:46:28.217Z,7.50
2022-09-13T13:49:34.888Z,7.90
2022-09-13T13:52:41.485Z,6.50
2022-09-13T13:55:47.171Z,8.80
2022-09-13T13:58:46.809Z,5.60
2022-09-13T14:01:27.486Z,8.40
2022-09-13T14:04:44.407Z,7.20
2022-09-13T14:07:54.515Z,8.10
2022-09-13T14:13:32.856Z,7.90
2022-09-13T14:16:14.351Z,7.40
2022-09-13T14:19:11.790Z,6.70
2022-09-13T14:21:45.284Z,8.80
2022-09-13T14:24:23.858Z,9.80
2022-09-13T14:26:59.907Z,8.20
2022-09-13T14:29:36.231Z,8.00
2022-09-13T14:32:15.727Z,8.40
2022-09-13T14:34:57.943Z,8.80
2022-09-13T14:37:42.179Z,8.80
2022-09-13T14:40:22.034Z,9.20
2022-09-13T14:42:56.344Z,11.30
2022-09-13T14:45:37.031Z,11.50
2022-09-13T14:48:17.453Z,11.10
2022-09-13T14:50:57.340Z,9.70
2022-09-13T14:53:36.077Z,9.10
2022-09-13T14:56:24.886Z,8.30
2022-09-13T14:59:00.387Z,9.80
2022-09-13T15:01:36.167Z,11.10
2022-09-13T15:04:12.962Z,9.20
2022-09-13T15:06:46.114Z,9.00
2022-09-13T15:09:29.937Z,9.50
2022-09-13T15:12:03.779Z,8.20
2022-09-13T15:14:39.742Z,6.70
2022-09-13T15:17:14.880Z,6.70
2022-09-13T15:19:53.622Z,10.90
2022-09-13T15:22:35.075Z,9.60
2022-09-13T15:25:25.415Z,8.60
2022-09-13T15:28:00.171Z,9.60
2022-09-13T15:30:43.388Z,8.10
2022-09-13T15:33:24.970Z,8.40
2022-09-13T15:36:17.904Z,7.90
2022-09-13T15:39:20.326Z,8.20
2022-09-13T15:42:03.333Z,10.00
2022-09-13T15:44:39.613Z,12.40
2022-09-13T15:47:20.516Z,10.60
2022-09-13T15:49:55.088Z,10.20
2022-09-13T15:52:28.316Z,11.80
2022-09-13T15:55:02.137Z,9.70
2022-09-13T15:57:35.377Z,12.40
2022-09-13T16:00:16.053Z,12.40
2022-09-13T16:02:50.270Z,17.30
2022-09-13T16:05:23.827Z,20.20
2022-09-13T16:07:59.182Z,18.70
2022-09-13T16:10:33.014Z,16.90
2022-09-13T16:13:09.772Z,19.90
2022-09-13T16:15:43.046Z,16.40
2022-09-13T16:18:19.559Z,15.40
2022-09-13T16:21:00.921Z,15.90
2022-09-13T16:23:36.408Z,13.50
2022-09-13T16:26:13.834Z,13.20
2022-09-13T16:28:47.114Z,13.40
2022-09-13T16:31:22.660Z,13.40
2022-09-13T16:34:06.939Z,11.10
2022-09-13T16:36:40.000Z,11.30
2022-09-13T16:39:13.300Z,16.00
2022-09-13T16:41:46.471Z,17.40
2022-09-13T16:44:29.182Z,16.10
2022-09-13T16:47:02.745Z,18.90
2022-09-13T16:49:36.035Z,14.00
2022-09-13T16:52:12.458Z,14.40
2022-09-13T16:55:06.162Z,21.50
2022-09-13T16:57:39.630Z,17.50
2022-09-13T17:00:16.034Z,16.60
2022-09-13T17:02:49.682Z,12.40
2022-09-13T17:05:43.421Z,13.20
2022-09-13T17:08:26.817Z,13.60
2022-09-13T17:11:06.034Z,12.40
2022-09-13T17:13:51.442Z,12.60
2022-09-13T17:16:30.431Z,13.10
2022-09-13T17:19:08.804Z,18.00
2022-09-13T17:21:45.541Z,10.30
2022-09-13T17:24:39.693Z,11.90
2022-09-13T17:27:12.952Z,11.10
2022-09-13T17:29:51.770Z,12.10
2022-09-13T17:32:24.918Z,12.70
2022-09-13T17:34:58.115Z,12.50
2022-09-13T17:37:33.979Z,12.30
2022-09-13T17:40:16.755Z,12.30
2022-09-13T17:43:10.215Z,13.00
2022-09-13T17:46:08.719Z,10.20
2022-09-13T17:48:41.978Z,11.40
2022-09-13T17:51:16.623Z,11.00
2022-09-13T17:53:51.346Z,12.40
2022-09-13T17:56:30.569Z,12.00
2022-09-13T17:59:10.178Z,12.00
2022-09-13T18:01:46.226Z,9.80
2022-09-13T18:04:21.443Z,11.20
2022-09-13T18:06:55.797Z,13.80
2022-09-13T18:09:29.468Z,12.50
2022-09-13T18:12:03.176Z,11.00
2022-09-13T18:14:38.851Z,11.40
2022-09-13T18:17:15.460Z,12.00
2022-09-13T18:19:52.548Z,11.20
2022-09-13T18:22:26.287Z,12.80
2022-09-13T18:25:03.336Z,10.40
2022-09-13T18:27:40.575Z,12.90
2022-09-13T18:30:25.616Z,13.30
2022-09-13T18:33:02.699Z,14.10
2022-09-13T18:35:39.553Z,11.60
2022-09-13T18:38:22.137Z,12.00
2022-09-13T18:41:06.435Z,12.30
2022-09-13T18:43:42.343Z,12.00
2022-09-13T18:46:20.896Z,11.90
2022-09-13T18:48:57.892Z,11.80
2022-09-13T18:51:34.017Z,12.40
2022-09-13T18:54:12.897Z,11.50
2022-09-13T18:56:46.363Z,15.40
2022-09-13T18:59:28.325Z,13.50
2022-09-13T19:02:05.962Z,12.30
2022-09-13T19:04:43.518Z,11.70
2022-09-13T19:07:16.919Z,13.70
2022-09-13T19:09:59.845Z,11.40
2022-09-13T19:12:33.291Z,12.90
2022-09-13T19:15:09.445Z,12.20
2022-09-13T19:17:43.499Z,13.70
2022-09-13T19:20:17.500Z,12.20
2022-09-13T19:22:52.855Z,11.90
2022-09-13T19:25:37.726Z,11.00
2022-09-13T19:28:11.415Z,11.00
2022-09-13T19:30:54.770Z,11.50
2022-09-13T19:33:33.646Z,12.40
2022-09-13T19:36:12.896Z,13.30
2022-09-13T19:38:48.066Z,12.00
2022-09-13T19:41:42.952Z,12.20
2022-09-13T19:44:18.288Z,14.00
2022-09-13T19:47:53.245Z,12.10
2022-09-13T19:50:00.495Z,11.50
2022-09-13T19:52:37.125Z,14.40
2022-09-13T19:55:14.421Z,13.20
2022-09-13T19:57:48.222Z,15.30
2022-09-13T20:00:25.136Z,11.50
2022-09-13T20:03:02.216Z,12.30
2022-09-13T20:05:38.332Z,13.50
2022-09-13T20:08:12.105Z,12.30
2022-09-13T20:11:10.144Z,11.70
2022-09-13T20:14:04.853Z,12.80
2022-09-13T20:16:40.489Z,12.20
2022-09-13T20:22:14.455Z,14.30
2022-09-13T20:24:48.023Z,11.50
2022-09-13T20:27:22.105Z,12.00
2022-09-13T20:29:56.466Z,11.80
2022-09-13T20:32:30.153Z,12.50
2022-09-13T20:35:15.111Z,11.30
2022-09-13T20:37:50.193Z,11.90
2022-09-13T20:40:24.819Z,11.60
2022-09-13T20:42:58.616Z,13.00
2022-09-13T20:45:32.303Z,12.50
2022-09-13T20:48:26.141Z,13.00
2022-09-13T20:51:05.532Z,12.60
2022-09-13T20:53:46.593Z,12.30
2022-09-13T20:56:40.707Z,12.10
2022-09-13T20:59:14.871Z,11.80
2022-09-13T21:01:48.401Z,10.70
2022-09-13T21:04:22.471Z,12.40
2022-09-13T21:07:15.924Z,13.90
2022-09-13T21:09:49.206Z,11.30
2022-09-13T21:12:22.610Z,11.50
2022-09-13T21:14:56.093Z,11.70
2022-09-13T21:17:29.373Z,11.70
2022-09-13T21:20:02.540Z,15.00
2022-09-13T21:22:36.446Z,12.80
2022-09-13T21:25:11.279Z,11.80
2022-09-13T21:27:47.860Z,11.90
2022-09-13T21:30:41.667Z,12.00
2022-09-13T21:33:14.879Z,13.80
2022-09-13T21:35:48.101Z,13.60
2022-09-13T21:38:21.628Z,14.10
2022-09-13T21:41:17.024Z,11.60
2022-09-13T21:43:53.034Z,12.70
2022-09-13T21:46:30.633Z,12.50
2022-09-13T21:49:18.247Z,12.80
2022-09-13T21:52:01.592Z,12.10
2022-09-13T21:54:44.078Z,11.30
2022-09-13T21:57:21.086Z,11.70
2022-09-13T21:59:54.237Z,12.90
2022-09-13T22:02:28.419Z,13.60
2022-09-13T22:05:01.629Z,11.70
2022-09-13T22:07:34.952Z,11.60
2022-09-13T22:10:10.243Z,11.40
2022-09-13T22:13:01.306Z,13.00
2022-09-13T22:15:35.950Z,13.20
2022-09-13T22:18:09.457Z,13.00
2022-09-13T22:20:42.560Z,13.10
2022-09-13T22:23:15.849Z,13.50
2022-09-13T22:25:49.008Z,15.40
2022-09-13T22:28:22.617Z,14.30
2022-09-13T22:31:04.691Z,14.60
2022-09-13T22:33:48.503Z,13.70
2022-09-13T22:36:25.413Z,14.00
2022-09-13T22:39:02.007Z,15.60
2022-09-13T22:41:38.269Z,14.30
2022-09-13T22:44:12.218Z,14.20
2022-09-13T22:49:22.276Z,16.30
2022-09-13T22:52:04.852Z,16.10
2022-09-13T22:54:51.466Z,16.10
2022-09-13T22:57:34.902Z,14.20
2022-09-13T23:00:09.834Z,15.80
2022-09-13T23:02:46.973Z,16.80
2022-09-13T23:05:23.611Z,16.00
2022-09-13T23:07:59.758Z,15.90
2022-09-13T23:10:44.332Z,13.80
2022-09-13T23:13:17.632Z,15.10
2022-09-13T23:15:50.920Z,13.60
2022-09-13T23:18:24.188Z,12.90
2022-09-13T23:21:00.925Z,13.20
2022-09-13T23:23:37.625Z,12.70
2022-09-13T23:26:17.793Z,13.20
2022-09-13T23:28:56.751Z,12.40
2022-09-13T23:31:31.840Z,10.50
2022-09-13T23:34:08.217Z,11.60
2022-09-13T23:36:43.540Z,10.10
2022-09-13T23:39:20.490Z,11.60
2022-09-13T23:41:53.845Z,10.90
2022-09-13T23:44:36.254Z,11.40
2022-09-13T23:47:13.311Z,9.60
2022-09-13T23:50:07.710Z,7.50
2022-09-13T23:52:43.912Z,6.30
2022-09-13T23:55:22.050Z,6.00
2022-09-13T23:58:00.425Z,4.90
